createdAt,value
2023-02-15T00:00:06.617Z,113.80
2023-02-15T00:02:33.172Z,143.33
2023-02-15T00:04:59.845Z,110.17
2023-02-15T00:07:26.405Z,249.70
2023-02-15T00:09:53.262Z,396.00
2023-02-15T00:12:19.827Z,143.37
2023-02-15T00:14:46.419Z,86.50
2023-02-15T00:17:13.131Z,262.97
2023-02-15T00:19:40.980Z,106.57
2023-02-15T00:22:07.700Z,149.83
2023-02-15T00:24:34.305Z,238.50
2023-02-15T00:27:00.982Z,101.57
2023-02-15T00:29:27.779Z,79.67
2023-02-15T00:31:54.530Z,109.23
2023-02-15T00:34:27.538Z,241.30
2023-02-15T00:36:54.638Z,87.97
2023-02-15T00:39:21.386Z,137.27
2023-02-15T00:41:48.334Z,117.80
2023-02-15T00:44:15.777Z,262.23
2023-02-15T00:46:42.723Z,359.83
2023-02-15T00:49:09.577Z,247.67
2023-02-15T00:51:36.145Z,422.03
2023-02-15T00:54:02.701Z,222.87
2023-02-15T00:56:29.666Z,298.87
2023-02-15T00:58:56.428Z,250.00
2023-02-15T01:01:24.398Z,386.20
2023-02-15T01:03:51.076Z,410.60
2023-02-15T01:06:18.092Z,189.93
2023-02-15T01:08:46.917Z,124.40
2023-02-15T01:11:22.656Z,148.70
2023-02-15T01:13:54.875Z,413.10
2023-02-15T01:16:21.896Z,213.17
2023-02-15T01:18:48.971Z,129.57
2023-02-15T01:21:19.690Z,260.37
2023-02-15T01:23:46.730Z,160.20
2023-02-15T01:26:13.920Z,167.73
2023-02-15T01:28:40.949Z,174.27
2023-02-15T01:31:14.530Z,206.07
2023-02-15T01:33:41.720Z,61.00
2023-02-15T01:36:08.502Z,95.30
2023-02-15T01:38:36.186Z,84.07
2023-02-15T01:41:21.027Z,165.00
2023-02-15T01:43:59.363Z,228.33
2023-02-15T01:46:37.758Z,122.67
2023-02-15T01:49:13.063Z,209.80
2023-02-15T01:51:42.922Z,276.53
2023-02-15T01:54:30.638Z,195.63
2023-02-15T01:57:03.361Z,214.43
2023-02-15T01:59:32.604Z,150.70
2023-02-15T02:02:00.788Z,171.50
2023-02-15T02:04:39.699Z,172.93
2023-02-15T02:07:08.575Z,96.80
2023-02-15T02:09:36.689Z,122.13
2023-02-15T02:12:03.698Z,85.60
2023-02-15T02:14:30.488Z,57.40
2023-02-15T02:17:14.859Z,196.77
2023-02-15T02:20:09.398Z,107.37
2023-02-15T02:23:00.224Z,103.50
2023-02-15T02:25:52.197Z,80.10
2023-02-15T02:28:42.982Z,110.87
2023-02-15T02:31:28.447Z,104.50
2023-02-15T02:33:59.153Z,77.40
2023-02-15T02:37:00.916Z,90.93
2023-02-15T02:39:48.780Z,148.37
2023-02-15T02:42:36.805Z,75.20
2023-02-15T02:45:14.346Z,141.80
2023-02-15T02:47:48.394Z,143.43
2023-02-15T02:50:22.585Z,91.83
2023-02-15T02:52:52.096Z,75.27
2023-02-15T02:55:22.512Z,109.90
2023-02-15T02:57:58.334Z,161.57
2023-02-15T03:00:27.767Z,133.90
2023-02-15T03:03:06.019Z,73.40
2023-02-15T03:05:36.530Z,122.13
2023-02-15T03:08:10.854Z,87.80
2023-02-15T03:10:40.033Z,102.30
2023-02-15T03:13:07.132Z,140.57
2023-02-15T03:15:58.721Z,137.30
2023-02-15T03:18:32.228Z,129.50
2023-02-15T03:21:02.148Z,80.87
2023-02-15T03:23:30.072Z,97.17
2023-02-15T03:26:03.340Z,112.90
2023-02-15T03:28:37.137Z,83.80
2023-02-15T03:31:07.517Z,80.10
2023-02-15T03:33:38.572Z,68.63
2023-02-15T03:36:20.041Z,113.07
2023-02-15T03:39:16.679Z,90.30
2023-02-15T03:42:13.964Z,94.50
2023-02-15T03:45:00.877Z,98.67
2023-02-15T03:47:32.223Z,122.93
2023-02-15T03:50:04.466Z,118.63
2023-02-15T03:52:33.205Z,120.97
2023-02-15T03:55:00.190Z,138.00
2023-02-15T03:57:47.942Z,126.87
2023-02-15T04:00:42.209Z,143.07
2023-02-15T04:03:30.173Z,130.10
2023-02-15T04:05:56.951Z,118.87
2023-02-15T04:08:43.603Z,88.57
2023-02-15T04:11:10.214Z,90.43
2023-02-15T04:13:36.916Z,133.50
2023-02-15T04:16:07.706Z,85.50
2023-02-15T04:18:59.753Z,76.90
2023-02-15T04:21:46.519Z,80.57
2023-02-15T04:24:32.326Z,86.60
2023-02-15T04:26:59.503Z,104.00
2023-02-15T04:29:27.599Z,92.03
2023-02-15T04:31:56.156Z,95.33
2023-02-15T04:34:23.489Z,102.77
2023-02-15T04:36:51.348Z,85.07
2023-02-15T04:39:19.258Z,122.03
2023-02-15T04:41:46.250Z,118.50
2023-02-15T04:44:13.142Z,103.13
2023-02-15T04:46:39.813Z,190.30
2023-02-15T04:49:06.699Z,163.13
2023-02-15T04:51:33.378Z,144.43
2023-02-15T04:54:00.030Z,153.60
2023-02-15T04:56:26.930Z,165.23
2023-02-15T04:58:53.556Z,144.67
2023-02-15T05:01:20.243Z,117.13
2023-02-15T05:03:47.217Z,155.90
2023-02-15T05:06:14.237Z,114.10
2023-02-15T05:08:40.837Z,149.00
2023-02-15T05:11:07.795Z,133.77
2023-02-15T05:13:34.418Z,141.87
2023-02-15T05:16:01.464Z,138.70
2023-02-15T05:18:28.251Z,143.40
2023-02-15T05:20:54.942Z,92.47
2023-02-15T05:23:21.567Z,98.57
2023-02-15T05:26:10.994Z,129.30
2023-02-15T05:28:38.437Z,101.80
2023-02-15T05:31:18.057Z,84.57
2023-02-15T05:33:45.757Z,93.27
2023-02-15T05:36:13.046Z,67.33
2023-02-15T05:38:40.134Z,102.30
2023-02-15T05:41:08.006Z,104.77
2023-02-15T05:43:34.857Z,82.30
2023-02-15T05:46:02.121Z,94.50
2023-02-15T05:48:29.281Z,148.43
2023-02-15T05:51:01.183Z,129.10
2023-02-15T05:53:29.628Z,152.23
2023-02-15T05:56:00.228Z,102.57
2023-02-15T05:58:28.773Z,140.20
2023-02-15T06:00:56.112Z,126.27
2023-02-15T06:03:24.054Z,127.60
2023-02-15T06:05:50.760Z,70.10
2023-02-15T06:08:17.420Z,121.83
2023-02-15T06:10:44.029Z,80.00
2023-02-15T06:13:10.666Z,172.17
2023-02-15T06:15:37.450Z,153.33
2023-02-15T06:18:04.189Z,113.97
2023-02-15T06:20:31.030Z,90.93
2023-02-15T06:22:58.065Z,173.43
2023-02-15T06:25:26.011Z,109.63
2023-02-15T06:27:52.687Z,113.63
2023-02-15T06:30:19.366Z,124.53
2023-02-15T06:32:46.246Z,84.10
2023-02-15T06:35:28.368Z,108.03
2023-02-15T06:37:55.577Z,104.57
2023-02-15T06:40:28.437Z,134.50
2023-02-15T06:43:26.682Z,142.53
2023-02-15T06:45:53.403Z,118.30
2023-02-15T06:48:20.045Z,97.70
2023-02-15T06:50:46.632Z,94.80
2023-02-15T06:53:14.289Z,144.23
2023-02-15T06:55:49.982Z,137.17
2023-02-15T06:58:16.614Z,125.93
2023-02-15T07:00:43.264Z,150.77
2023-02-15T07:03:09.934Z,104.07
2023-02-15T07:05:55.496Z,108.97
2023-02-15T07:08:24.529Z,123.27
2023-02-15T07:10:52.495Z,104.53
2023-02-15T07:13:23.985Z,112.47
2023-02-15T07:15:51.409Z,119.07
2023-02-15T07:21:01.885Z,91.87
2023-02-15T07:23:42.559Z,106.70
2023-02-15T07:26:14.717Z,112.87
2023-02-15T07:28:41.520Z,73.70
2023-02-15T07:31:18.673Z,59.70
2023-02-15T07:36:59.648Z,118.27
2023-02-15T07:39:34.800Z,125.47
2023-02-15T07:42:02.164Z,163.67
2023-02-15T07:44:28.893Z,118.13
2023-02-15T07:47:10.398Z,88.23
2023-02-15T07:49:37.145Z,102.07
2023-02-15T07:52:03.906Z,132.67
2023-02-15T07:54:30.654Z,133.47
2023-02-15T07:56:57.256Z,99.10
2023-02-15T07:59:25.054Z,98.40
2023-02-15T08:01:53.833Z,102.57
2023-02-15T08:04:20.568Z,101.57
2023-02-15T08:06:47.354Z,140.77
2023-02-15T08:09:14.188Z,102.87
2023-02-15T08:11:41.747Z,132.93
2023-02-15T08:14:14.407Z,95.10
2023-02-15T08:16:54.033Z,114.47
2023-02-15T08:19:28.427Z,73.73
2023-02-15T08:21:58.154Z,104.40
2023-02-15T08:24:27.287Z,71.17
2023-02-15T08:26:54.606Z,106.07
2023-02-15T08:29:23.841Z,88.90
2023-02-15T08:31:53.933Z,88.27
2023-02-15T08:34:21.942Z,60.33
2023-02-15T08:36:48.674Z,83.73
2023-02-15T08:39:16.518Z,46.67
2023-02-15T08:41:45.297Z,56.97
2023-02-15T08:44:12.415Z,52.37
2023-02-15T08:46:42.511Z,47.73
2023-02-15T08:49:10.750Z,38.13
2023-02-15T08:51:39.618Z,42.27
2023-02-15T08:54:13.095Z,38.93
2023-02-15T08:56:42.736Z,38.10
2023-02-15T08:59:14.922Z,36.37
2023-02-15T09:01:41.833Z,49.27
2023-02-15T09:04:14.049Z,45.60
2023-02-15T09:06:42.292Z,31.73
2023-02-15T09:09:09.383Z,27.13
2023-02-15T09:11:38.998Z,32.53
2023-02-15T09:14:16.246Z,28.83
2023-02-15T09:16:47.488Z,43.67
2023-02-15T09:19:14.340Z,43.40
2023-02-15T09:21:41.361Z,55.07
2023-02-15T09:24:10.672Z,37.73
2023-02-15T09:26:41.698Z,32.87
2023-02-15T09:29:09.759Z,22.93
2023-02-15T09:31:46.098Z,14.80
2023-02-15T09:34:14.821Z,17.20
2023-02-15T09:36:42.276Z,18.27
2023-02-15T09:39:14.976Z,16.77
2023-02-15T09:41:56.667Z,17.25
2023-02-15T09:44:47.168Z,10.88
2023-02-15T09:47:41.271Z,13.57
2023-02-15T09:50:14.129Z,13.37
2023-02-15T09:52:43.864Z,13.20
2023-02-15T09:55:19.659Z,15.37
2023-02-15T09:58:09.476Z,13.35
2023-02-15T10:00:46.452Z,11.50
2023-02-15T10:03:44.507Z,13.30
2023-02-15T10:06:28.340Z,10.82
2023-02-15T10:09:36.616Z,10.35
2023-02-15T10:12:31.545Z,10.88
2023-02-15T10:15:19.868Z,8.82
2023-02-15T10:18:01.705Z,8.57
2023-02-15T10:20:58.914Z,9.60
2023-02-15T10:23:40.192Z,10.98
2023-02-15T10:26:23.661Z,14.88
2023-02-15T10:28:58.253Z,10.43
2023-02-15T10:31:54.233Z,11.70
2023-02-15T10:34:33.840Z,10.23
2023-02-15T10:37:21.752Z,10.70
2023-02-15T10:39:54.174Z,10.23
2023-02-15T10:42:27.542Z,9.65
2023-02-15T10:45:12.459Z,10.00
2023-02-15T10:47:46.904Z,10.18
2023-02-15T10:50:47.281Z,11.27
2023-02-15T10:53:26.006Z,11.82
2023-02-15T10:56:10.924Z,12.30
2023-02-15T10:59:02.194Z,10.23
2023-02-15T11:02:06.054Z,15.38
2023-02-15T11:05:15.418Z,10.85
2023-02-15T11:07:47.333Z,15.00
2023-02-15T11:10:27.452Z,12.10
2023-02-15T11:12:55.661Z,12.20
2023-02-15T11:15:36.191Z,16.15
2023-02-15T11:18:32.375Z,12.77
2023-02-15T11:21:18.021Z,12.20
2023-02-15T11:23:45.926Z,37.67
2023-02-15T11:26:36.440Z,14.07
2023-02-15T11:29:12.489Z,14.30
2023-02-15T11:31:54.630Z,14.32
2023-02-15T11:34:28.663Z,12.52
2023-02-15T11:36:59.211Z,14.77
2023-02-15T11:39:32.799Z,13.55
2023-02-15T11:42:37.684Z,17.20
2023-02-15T11:45:23.383Z,15.07
2023-02-15T11:47:50.155Z,17.08
2023-02-15T11:50:23.372Z,15.80
2023-02-15T11:52:57.932Z,22.13
2023-02-15T11:55:25.791Z,17.95
2023-02-15T11:58:03.945Z,15.88
2023-02-15T12:00:40.937Z,16.02
2023-02-15T12:03:21.421Z,17.60
2023-02-15T12:05:55.187Z,15.13
2023-02-15T12:08:23.086Z,19.85
2023-02-15T12:11:13.794Z,16.08
2023-02-15T12:13:59.086Z,18.80
2023-02-15T12:16:28.514Z,18.38
2023-02-15T12:18:58.460Z,15.95
2023-02-15T12:21:32.476Z,21.90
2023-02-15T12:24:28.502Z,17.35
2023-02-15T12:27:23.260Z,16.83
2023-02-15T12:29:58.190Z,18.58
2023-02-15T12:32:29.830Z,18.55
2023-02-15T12:35:02.385Z,19.30
2023-02-15T12:37:32.936Z,20.88
2023-02-15T12:40:01.799Z,20.05
2023-02-15T12:42:42.103Z,18.30
2023-02-15T12:45:30.418Z,24.10
2023-02-15T12:48:15.073Z,21.63
2023-02-15T12:50:43.698Z,52.10
2023-02-15T12:53:21.463Z,24.70
2023-02-15T12:56:02.238Z,19.70
2023-02-15T12:58:34.592Z,21.55
2023-02-15T13:01:13.025Z,21.08
2023-02-15T13:03:55.104Z,19.88
2023-02-15T13:06:22.088Z,20.75
2023-02-15T13:08:55.169Z,24.45
2023-02-15T13:11:29.723Z,21.20
2023-02-15T13:14:04.754Z,20.25
2023-02-15T13:16:35.318Z,22.65
2023-02-15T13:19:19.546Z,19.60
2023-02-15T13:21:53.203Z,20.52
2023-02-15T13:24:24.869Z,20.80
2023-02-15T13:26:59.072Z,19.95
2023-02-15T13:29:37.656Z,21.27
2023-02-15T13:32:26.443Z,21.92
2023-02-15T13:34:58.232Z,21.83
2023-02-15T13:37:33.867Z,20.45
2023-02-15T13:40:08.235Z,21.65
2023-02-15T13:42:54.213Z,21.40
2023-02-15T13:45:58.072Z,24.02
2023-02-15T13:48:51.487Z,25.05
2023-02-15T13:51:25.859Z,25.60
2023-02-15T13:54:06.315Z,29.38
2023-02-15T13:57:12.024Z,24.55
2023-02-15T14:00:05.166Z,27.20
2023-02-15T14:03:00.276Z,26.17
2023-02-15T14:07:09.050Z,24.40
2023-02-15T14:10:11.802Z,23.38
2023-02-15T14:12:54.177Z,23.27
2023-02-15T14:15:47.797Z,21.95
2023-02-15T14:18:42.341Z,23.25
2023-02-15T14:21:20.160Z,22.77
2023-02-15T14:23:56.845Z,24.20
2023-02-15T14:27:03.023Z,21.17
2023-02-15T14:30:04.924Z,23.05
2023-02-15T14:32:42.191Z,23.20
2023-02-15T14:35:17.123Z,27.60
2023-02-15T14:38:22.863Z,24.45
2023-02-15T14:41:06.463Z,24.25
2023-02-15T14:44:01.654Z,25.17
2023-02-15T14:47:07.614Z,28.52
2023-02-15T14:49:41.508Z,27.70
2023-02-15T14:52:13.518Z,30.73
2023-02-15T14:54:40.380Z,28.52
2023-02-15T14:57:07.589Z,33.22
2023-02-15T14:59:59.990Z,30.75
2023-02-15T15:02:26.807Z,30.65
2023-02-15T15:07:36.101Z,28.88
2023-02-15T15:10:28.235Z,30.90
2023-02-15T15:12:56.798Z,30.67
2023-02-15T15:15:32.514Z,33.00
2023-02-15T15:18:07.703Z,33.65
2023-02-15T15:20:52.709Z,29.35
2023-02-15T15:23:19.357Z,31.92
2023-02-15T15:25:58.026Z,34.05
2023-02-15T15:28:34.050Z,33.92
2023-02-15T15:31:18.958Z,36.88
2023-02-15T15:34:04.211Z,31.65
2023-02-15T15:36:47.045Z,37.67
2023-02-15T15:39:31.829Z,34.58
2023-02-15T15:42:19.812Z,33.28
2023-02-15T15:45:00.560Z,35.08
2023-02-15T15:47:51.368Z,37.33
2023-02-15T15:50:22.925Z,33.33
2023-02-15T15:53:01.910Z,33.70
2023-02-15T15:55:31.554Z,36.15
2023-02-15T15:58:02.196Z,38.58
2023-02-15T16:00:50.247Z,35.83
2023-02-15T16:03:21.335Z,34.35
2023-02-15T16:05:53.719Z,39.25
2023-02-15T16:08:27.739Z,38.67
2023-02-15T16:10:54.395Z,37.63
2023-02-15T16:13:21.848Z,38.13
2023-02-15T16:15:53.354Z,36.83
2023-02-15T16:18:26.126Z,37.58
2023-02-15T16:21:01.753Z,37.88
2023-02-15T16:23:46.929Z,38.58
2023-02-15T16:26:49.686Z,32.33
2023-02-15T16:29:18.698Z,37.00
2023-02-15T16:32:02.018Z,33.97
2023-02-15T16:34:33.196Z,36.60
2023-02-15T16:37:19.249Z,33.28
2023-02-15T16:39:49.066Z,38.08
2023-02-15T16:42:18.031Z,32.40
2023-02-15T16:45:08.906Z,35.22
2023-02-15T16:47:42.103Z,32.17
2023-02-15T16:50:21.930Z,33.05
2023-02-15T16:52:48.893Z,35.65
2023-02-15T16:55:25.115Z,34.60
2023-02-15T16:57:56.711Z,37.40
2023-02-15T17:00:27.807Z,35.70
2023-02-15T17:03:05.652Z,32.70
2023-02-15T17:05:40.936Z,38.50
2023-02-15T17:08:14.470Z,39.67
2023-02-15T17:10:43.075Z,34.10
2023-02-15T17:13:14.081Z,36.60
2023-02-15T17:15:42.223Z,40.60
2023-02-15T17:18:21.562Z,39.60
2023-02-15T17:20:51.589Z,37.58
2023-02-15T17:23:37.304Z,36.30
2023-02-15T17:26:16.394Z,34.53
2023-02-15T17:28:52.062Z,40.17
2023-02-15T17:31:20.586Z,37.80
2023-02-15T17:33:47.957Z,37.45
2023-02-15T17:36:23.432Z,36.58
2023-02-15T17:38:59.588Z,37.17
2023-02-15T17:41:30.664Z,36.15
2023-02-15T17:43:57.955Z,37.03
2023-02-15T17:46:26.002Z,34.50
2023-02-15T17:48:55.966Z,36.55
2023-02-15T17:51:23.512Z,32.90
2023-02-15T17:54:09.133Z,39.35
2023-02-15T17:56:38.063Z,33.78
2023-02-15T17:59:09.565Z,38.20
2023-02-15T18:01:57.702Z,34.38
2023-02-15T18:04:43.814Z,37.15
2023-02-15T18:07:38.626Z,32.50
2023-02-15T18:10:38.357Z,35.92
2023-02-15T18:13:06.019Z,32.67
2023-02-15T18:15:33.055Z,33.53
2023-02-15T18:17:59.926Z,31.15
2023-02-15T18:20:42.942Z,32.03
2023-02-15T18:23:18.269Z,32.53
2023-02-15T18:25:44.998Z,32.13
2023-02-15T18:28:11.780Z,32.00
2023-02-15T18:30:42.961Z,33.67
2023-02-15T18:33:28.616Z,30.98
2023-02-15T18:35:55.321Z,32.13
2023-02-15T18:38:23.433Z,34.33
2023-02-15T18:40:50.876Z,32.15
2023-02-15T18:43:17.742Z,31.02
2023-02-15T18:45:44.407Z,40.15
2023-02-15T18:48:11.273Z,33.30
2023-02-15T18:50:38.500Z,38.00
2023-02-15T18:53:07.170Z,35.78
2023-02-15T18:55:35.297Z,47.97
2023-02-15T18:58:02.067Z,43.30
2023-02-15T19:00:34.594Z,53.75
2023-02-15T19:03:02.577Z,44.70
2023-02-15T19:05:30.945Z,45.03
2023-02-15T19:07:59.687Z,47.78
2023-02-15T19:10:29.523Z,38.50
2023-02-15T19:12:58.049Z,37.50
2023-02-15T19:15:27.662Z,37.80
2023-02-15T19:17:55.078Z,36.47
2023-02-15T19:20:35.137Z,38.65
2023-02-15T19:23:02.842Z,45.22
2023-02-15T19:25:33.901Z,43.08
2023-02-15T19:28:09.048Z,44.50
2023-02-15T19:30:37.566Z,40.77
2023-02-15T19:33:05.787Z,48.03
2023-02-15T19:35:38.318Z,47.53
2023-02-15T19:38:14.278Z,53.78
2023-02-15T19:40:44.668Z,43.72
2023-02-15T19:43:20.580Z,47.42
2023-02-15T19:45:47.481Z,48.78
2023-02-15T19:48:14.891Z,77.97
2023-02-15T19:50:45.261Z,57.35
2023-02-15T19:53:19.280Z,48.53
2023-02-15T19:55:45.931Z,75.63
2023-02-15T19:58:18.952Z,47.97
2023-02-15T20:00:47.828Z,42.40
2023-02-15T20:03:15.519Z,66.20
2023-02-15T20:05:43.658Z,44.70
2023-02-15T20:08:19.063Z,41.30
2023-02-15T20:10:46.456Z,40.43
2023-02-15T20:13:15.977Z,42.73
2023-02-15T20:15:43.643Z,36.93
2023-02-15T20:18:10.939Z,41.67
2023-02-15T20:20:44.273Z,43.33
2023-02-15T20:23:37.542Z,46.00
2023-02-15T20:26:32.579Z,44.45
2023-02-15T20:29:02.649Z,36.80
2023-02-15T20:31:30.383Z,38.83
2023-02-15T20:33:58.665Z,39.67
2023-02-15T20:36:26.149Z,39.63
2023-02-15T20:38:52.926Z,39.57
2023-02-15T20:41:37.514Z,39.10
2023-02-15T20:44:24.839Z,35.60
2023-02-15T20:46:54.667Z,37.37
2023-02-15T20:49:24.033Z,39.13
2023-02-15T20:51:51.744Z,40.77
2023-02-15T20:54:21.596Z,43.37
2023-02-15T20:56:48.550Z,46.80
2023-02-15T20:59:27.584Z,44.23
2023-02-15T21:01:59.777Z,46.10
2023-02-15T21:04:31.426Z,44.73
2023-02-15T21:07:03.488Z,114.83
2023-02-15T21:09:31.630Z,99.90
2023-02-15T21:11:59.780Z,57.93
2023-02-15T21:14:28.348Z,53.73
2023-02-15T21:16:55.097Z,83.53
2023-02-15T21:19:24.000Z,81.77
2023-02-15T21:21:52.949Z,51.72
2023-02-15T21:24:24.146Z,58.07
2023-02-15T21:26:51.605Z,50.40
2023-02-15T21:29:24.909Z,49.07
2023-02-15T21:31:52.219Z,49.87
2023-02-15T21:34:19.086Z,50.07
2023-02-15T21:36:48.438Z,50.93
2023-02-15T21:39:26.995Z,53.37
2023-02-15T21:42:13.789Z,51.47
2023-02-15T21:44:59.529Z,49.33
2023-02-15T21:47:47.432Z,46.33
2023-02-15T21:50:36.839Z,52.00
2023-02-15T21:53:06.047Z,53.57
2023-02-15T21:55:33.263Z,50.63
2023-02-15T21:58:01.031Z,71.97
2023-02-15T22:00:30.462Z,66.57
2023-02-15T22:02:59.486Z,50.97
2023-02-15T22:05:29.737Z,74.40
2023-02-15T22:07:57.306Z,48.20
2023-02-15T22:10:28.779Z,70.83
2023-02-15T22:12:56.083Z,61.33
2023-02-15T22:15:24.551Z,54.43
2023-02-15T22:17:52.983Z,51.53
2023-02-15T22:20:23.140Z,49.93
2023-02-15T22:22:51.089Z,50.50
2023-02-15T22:25:24.091Z,60.50
2023-02-15T22:27:53.548Z,55.63
2023-02-15T22:30:32.198Z,83.43
2023-02-15T22:33:00.263Z,58.03
2023-02-15T22:35:33.975Z,55.23
2023-02-15T22:38:01.270Z,50.43
2023-02-15T22:40:33.669Z,57.77
2023-02-15T22:43:03.672Z,54.77
2023-02-15T22:45:35.500Z,48.67
2023-02-15T22:48:02.574Z,54.27
2023-02-15T22:50:32.245Z,61.10
2023-02-15T22:53:03.453Z,54.60
2023-02-15T22:55:33.447Z,55.87
2023-02-15T22:58:00.523Z,65.77
2023-02-15T23:00:31.158Z,46.97
2023-02-15T23:02:58.053Z,67.47
2023-02-15T23:05:30.268Z,77.03
2023-02-15T23:07:57.821Z,61.10
2023-02-15T23:10:26.790Z,94.20
2023-02-15T23:13:18.129Z,67.23
2023-02-15T23:15:50.303Z,65.87
2023-02-15T23:18:38.845Z,60.10
2023-02-15T23:21:26.179Z,75.97
2023-02-15T23:23:55.905Z,57.77
2023-02-15T23:26:28.619Z,59.17
2023-02-15T23:28:57.872Z,57.53
2023-02-15T23:31:26.191Z,65.33
2023-02-15T23:33:54.091Z,71.97
2023-02-15T23:36:30.018Z,58.53
2023-02-15T23:39:22.745Z,59.57
2023-02-15T23:41:49.486Z,62.33
2023-02-15T23:44:16.371Z,68.67
2023-02-15T23:46:46.411Z,63.13
2023-02-15T23:49:15.220Z,67.80
2023-02-15T23:51:44.383Z,69.97
2023-02-15T23:54:11.674Z,73.37
2023-02-15T23:56:38.931Z,68.67
2023-02-15T23:59:06.084Z,68.10
